sensor_id;sensor_type;location;lat;lon;timestamp;P1;durP1;ratioP1;P2;durP2;ratioP2
69463;SDS011;56665;41.106;16.688;2022-08-21T00:01:46;6.00;;;3.85;;
69463;SDS011;56665;41.106;16.688;2022-08-21T00:04:50;7.63;;;4.00;;
69463;SDS011;56665;41.106;16.688;2022-08-21T00:07:55;4.82;;;3.47;;
69463;SDS011;56665;41.106;16.688;2022-08-21T00:10:59;7.45;;;3.83;;
69463;SDS011;56665;41.106;16.688;2022-08-21T00:14:03;5.65;;;3.55;;
69463;SDS011;56665;41.106;16.688;2022-08-21T00:17:09;5.82;;;3.60;;
69463;SDS011;56665;41.106;16.688;2022-08-21T00:20:14;6.67;;;3.67;;
69463;SDS011;56665;41.106;16.688;2022-08-21T00:23:18;11.43;;;3.80;;
69463;SDS011;56665;41.106;16.688;2022-08-21T00:26:22;6.40;;;3.55;;
69463;SDS011;56665;41.106;16.688;2022-08-21T00:29:26;6.68;;;4.03;;
69463;SDS011;56665;41.106;16.688;2022-08-21T00:32:31;6.38;;;3.90;;
69463;SDS011;56665;41.106;16.688;2022-08-21T00:35:38;6.83;;;3.70;;
69463;SDS011;56665;41.106;16.688;2022-08-21T00:38:43;8.25;;;3.67;;
69463;SDS011;56665;41.106;16.688;2022-08-21T00:41:47;6.28;;;3.60;;
69463;SDS011;56665;41.106;16.688;2022-08-21T00:44:51;6.15;;;4.13;;
69463;SDS011;56665;41.106;16.688;2022-08-21T00:47:54;5.97;;;4.05;;
69463;SDS011;56665;41.106;16.688;2022-08-21T00:51:01;6.43;;;3.77;;
69463;SDS011;56665;41.106;16.688;2022-08-21T00:54:11;5.57;;;3.83;;
69463;SDS011;56665;41.106;16.688;2022-08-21T00:57:17;5.65;;;4.13;;
69463;SDS011;56665;41.106;16.688;2022-08-21T01:00:32;6.30;;;3.78;;
69463;SDS011;56665;41.106;16.688;2022-08-21T01:03:38;6.85;;;4.28;;
69463;SDS011;56665;41.106;16.688;2022-08-21T01:06:41;6.33;;;3.60;;
69463;SDS011;56665;41.106;16.688;2022-08-21T01:09:46;5.88;;;3.70;;
69463;SDS011;56665;41.106;16.688;2022-08-21T01:12:51;5.43;;;3.58;;
69463;SDS011;56665;41.106;16.688;2022-08-21T01:15:58;6.80;;;3.40;;
69463;SDS011;56665;41.106;16.688;2022-08-21T01:19:03;6.13;;;3.50;;
69463;SDS011;56665;41.106;16.688;2022-08-21T01:22:07;5.63;;;3.27;;
69463;SDS011;56665;41.106;16.688;2022-08-21T01:25:12;8.98;;;2.95;;
69463;SDS011;56665;41.106;16.688;2022-08-21T01:28:18;9.00;;;3.20;;
69463;SDS011;56665;41.106;16.688;2022-08-21T01:31:23;5.00;;;2.85;;
69463;SDS011;56665;41.106;16.688;2022-08-21T01:34:28;4.93;;;2.97;;
69463;SDS011;56665;41.106;16.688;2022-08-21T01:37:32;6.90;;;2.83;;
69463;SDS011;56665;41.106;16.688;2022-08-21T01:40:38;5.88;;;2.92;;
69463;SDS011;56665;41.106;16.688;2022-08-21T01:43:42;8.02;;;2.90;;
69463;SDS011;56665;41.106;16.688;2022-08-21T01:46:46;5.32;;;2.67;;
69463;SDS011;56665;41.106;16.688;2022-08-21T01:49:50;5.82;;;3.20;;
69463;SDS011;56665;41.106;16.688;2022-08-21T01:52:54;5.40;;;2.67;;
69463;SDS011;56665;41.106;16.688;2022-08-21T01:55:58;5.47;;;2.50;;
69463;SDS011;56665;41.106;16.688;2022-08-21T01:59:02;7.22;;;3.22;;
69463;SDS011;56665;41.106;16.688;2022-08-21T02:02:06;6.82;;;2.65;;
69463;SDS011;56665;41.106;16.688;2022-08-21T02:05:11;5.25;;;2.45;;
69463;SDS011;56665;41.106;16.688;2022-08-21T02:08:15;7.47;;;2.93;;
69463;SDS011;56665;41.106;16.688;2022-08-21T02:11:18;5.22;;;2.75;;
69463;SDS011;56665;41.106;16.688;2022-08-21T02:14:23;5.47;;;2.10;;
69463;SDS011;56665;41.106;16.688;2022-08-21T02:17:27;5.20;;;2.80;;
69463;SDS011;56665;41.106;16.688;2022-08-21T02:20:32;3.88;;;2.22;;
69463;SDS011;56665;41.106;16.688;2022-08-21T02:23:39;7.00;;;2.60;;
69463;SDS011;56665;41.106;16.688;2022-08-21T02:26:43;5.68;;;2.60;;
69463;SDS011;56665;41.106;16.688;2022-08-21T02:29:47;7.35;;;2.72;;
69463;SDS011;56665;41.106;16.688;2022-08-21T02:32:51;6.25;;;2.78;;
69463;SDS011;56665;41.106;16.688;2022-08-21T02:35:55;5.55;;;2.65;;
69463;SDS011;56665;41.106;16.688;2022-08-21T02:38:59;5.30;;;2.50;;
69463;SDS011;56665;41.106;16.688;2022-08-21T02:42:03;6.35;;;2.40;;
69463;SDS011;56665;41.106;16.688;2022-08-21T02:45:07;4.88;;;2.58;;
69463;SDS011;56665;41.106;16.688;2022-08-21T02:48:15;6.15;;;2.70;;
69463;SDS011;56665;41.106;16.688;2022-08-21T02:51:20;5.85;;;2.83;;
69463;SDS011;56665;41.106;16.688;2022-08-21T02:54:24;6.57;;;2.60;;
69463;SDS011;56665;41.106;16.688;2022-08-21T02:57:27;8.80;;;2.65;;
69463;SDS011;56665;41.106;16.688;2022-08-21T03:00:32;6.57;;;2.45;;
69463;SDS011;56665;41.106;16.688;2022-08-21T03:03:37;4.75;;;2.38;;
69463;SDS011;56665;41.106;16.688;2022-08-21T03:06:42;6.65;;;2.58;;
69463;SDS011;56665;41.106;16.688;2022-08-21T03:09:47;4.47;;;2.30;;
69463;SDS011;56665;41.106;16.688;2022-08-21T03:12:52;6.38;;;2.42;;
69463;SDS011;56665;41.106;16.688;2022-08-21T03:15:57;5.03;;;2.40;;
69463;SDS011;56665;41.106;16.688;2022-08-21T03:19:02;6.43;;;2.28;;
69463;SDS011;56665;41.106;16.688;2022-08-21T03:22:07;5.20;;;2.50;;
69463;SDS011;56665;41.106;16.688;2022-08-21T03:25:11;8.10;;;2.77;;
69463;SDS011;56665;41.106;16.688;2022-08-21T03:28:18;13.35;;;3.08;;
69463;SDS011;56665;41.106;16.688;2022-08-21T03:31:23;8.13;;;2.80;;
69463;SDS011;56665;41.106;16.688;2022-08-21T03:34:27;6.65;;;2.85;;
69463;SDS011;56665;41.106;16.688;2022-08-21T03:37:31;8.20;;;2.63;;
69463;SDS011;56665;41.106;16.688;2022-08-21T03:40:35;5.73;;;2.40;;
69463;SDS011;56665;41.106;16.688;2022-08-21T03:43:38;9.00;;;2.67;;
69463;SDS011;56665;41.106;16.688;2022-08-21T03:46:43;6.05;;;2.50;;
69463;SDS011;56665;41.106;16.688;2022-08-21T03:49:47;7.85;;;2.80;;
69463;SDS011;56665;41.106;16.688;2022-08-21T03:52:51;8.38;;;2.60;;
69463;SDS011;56665;41.106;16.688;2022-08-21T03:55:55;6.20;;;2.50;;
69463;SDS011;56665;41.106;16.688;2022-08-21T03:58:58;6.00;;;2.60;;
69463;SDS011;56665;41.106;16.688;2022-08-21T04:02:04;10.60;;;2.75;;
69463;SDS011;56665;41.106;16.688;2022-08-21T04:05:10;7.57;;;2.70;;
69463;SDS011;56665;41.106;16.688;2022-08-21T04:08:17;6.07;;;2.58;;
69463;SDS011;56665;41.106;16.688;2022-08-21T04:11:21;8.37;;;2.80;;
69463;SDS011;56665;41.106;16.688;2022-08-21T04:14:25;5.65;;;2.40;;
69463;SDS011;56665;41.106;16.688;2022-08-21T04:17:29;7.50;;;2.58;;
69463;SDS011;56665;41.106;16.688;2022-08-21T04:20:34;4.68;;;2.60;;
69463;SDS011;56665;41.106;16.688;2022-08-21T04:23:38;7.38;;;2.90;;
69463;SDS011;56665;41.106;16.688;2022-08-21T04:26:41;5.77;;;2.60;;
69463;SDS011;56665;41.106;16.688;2022-08-21T04:29:45;6.70;;;2.80;;
69463;SDS011;56665;41.106;16.688;2022-08-21T04:32:50;7.85;;;2.42;;
69463;SDS011;56665;41.106;16.688;2022-08-21T04:35:55;7.95;;;2.80;;
69463;SDS011;56665;41.106;16.688;2022-08-21T04:38:59;6.45;;;3.03;;
69463;SDS011;56665;41.106;16.688;2022-08-21T04:42:03;8.67;;;3.30;;
69463;SDS011;56665;41.106;16.688;2022-08-21T04:45:14;7.50;;;3.00;;
69463;SDS011;56665;41.106;16.688;2022-08-21T04:48:20;5.57;;;2.80;;
69463;SDS011;56665;41.106;16.688;2022-08-21T04:51:28;7.18;;;3.30;;
69463;SDS011;56665;41.106;16.688;2022-08-21T04:54:35;6.97;;;2.80;;
69463;SDS011;56665;41.106;16.688;2022-08-21T04:57:39;7.50;;;2.90;;
69463;SDS011;56665;41.106;16.688;2022-08-21T05:00:44;7.22;;;2.95;;
69463;SDS011;56665;41.106;16.688;2022-08-21T05:03:50;8.27;;;3.58;;
69463;SDS011;56665;41.106;16.688;2022-08-21T05:06:59;6.53;;;2.92;;
69463;SDS011;56665;41.106;16.688;2022-08-21T05:10:06;6.75;;;3.20;;
69463;SDS011;56665;41.106;16.688;2022-08-21T05:13:12;6.73;;;2.63;;
69463;SDS011;56665;41.106;16.688;2022-08-21T05:16:16;7.05;;;3.17;;
69463;SDS011;56665;41.106;16.688;2022-08-21T05:19:21;8.02;;;3.10;;
69463;SDS011;56665;41.106;16.688;2022-08-21T05:22:26;6.68;;;3.42;;
69463;SDS011;56665;41.106;16.688;2022-08-21T05:25:30;7.78;;;3.35;;
69463;SDS011;56665;41.106;16.688;2022-08-21T05:28:34;8.40;;;2.93;;
69463;SDS011;56665;41.106;16.688;2022-08-21T05:31:38;7.35;;;2.88;;
69463;SDS011;56665;41.106;16.688;2022-08-21T05:34:43;10.35;;;3.22;;
69463;SDS011;56665;41.106;16.688;2022-08-21T05:37:47;7.55;;;3.00;;
69463;SDS011;56665;41.106;16.688;2022-08-21T05:40:52;7.85;;;2.80;;
69463;SDS011;56665;41.106;16.688;2022-08-21T05:43:56;9.30;;;3.27;;
69463;SDS011;56665;41.106;16.688;2022-08-21T05:47:03;7.10;;;3.03;;
69463;SDS011;56665;41.106;16.688;2022-08-21T05:50:11;9.88;;;3.15;;
69463;SDS011;56665;41.106;16.688;2022-08-21T05:53:16;5.65;;;2.72;;
69463;SDS011;56665;41.106;16.688;2022-08-21T05:56:21;7.15;;;2.40;;
69463;SDS011;56665;41.106;16.688;2022-08-21T05:59:25;6.73;;;2.70;;
69463;SDS011;56665;41.106;16.688;2022-08-21T06:02:30;7.15;;;2.47;;
69463;SDS011;56665;41.106;16.688;2022-08-21T06:05:34;6.72;;;2.80;;
69463;SDS011;56665;41.106;16.688;2022-08-21T06:08:38;6.90;;;2.83;;
69463;SDS011;56665;41.106;16.688;2022-08-21T06:11:42;10.02;;;3.00;;
69463;SDS011;56665;41.106;16.688;2022-08-21T06:14:46;8.70;;;2.90;;
69463;SDS011;56665;41.106;16.688;2022-08-21T06:17:50;10.15;;;3.17;;
69463;SDS011;56665;41.106;16.688;2022-08-21T06:20:53;7.75;;;2.92;;
69463;SDS011;56665;41.106;16.688;2022-08-21T06:23:57;8.77;;;2.70;;
69463;SDS011;56665;41.106;16.688;2022-08-21T06:27:05;6.97;;;3.00;;
69463;SDS011;56665;41.106;16.688;2022-08-21T06:30:10;9.30;;;3.20;;
69463;SDS011;56665;41.106;16.688;2022-08-21T06:33:16;7.00;;;3.25;;
69463;SDS011;56665;41.106;16.688;2022-08-21T06:36:19;8.63;;;2.60;;
69463;SDS011;56665;41.106;16.688;2022-08-21T06:39:26;7.82;;;3.17;;
69463;SDS011;56665;41.106;16.688;2022-08-21T06:42:30;9.68;;;3.03;;
69463;SDS011;56665;41.106;16.688;2022-08-21T06:45:34;6.07;;;2.90;;
69463;SDS011;56665;41.106;16.688;2022-08-21T06:48:37;8.95;;;3.42;;
69463;SDS011;56665;41.106;16.688;2022-08-21T06:51:41;9.77;;;3.38;;
69463;SDS011;56665;41.106;16.688;2022-08-21T06:54:45;7.28;;;2.97;;
69463;SDS011;56665;41.106;16.688;2022-08-21T06:57:49;6.90;;;2.70;;
69463;SDS011;56665;41.106;16.688;2022-08-21T07:00:52;6.00;;;2.67;;
69463;SDS011;56665;41.106;16.688;2022-08-21T07:03:56;8.35;;;3.10;;
69463;SDS011;56665;41.106;16.688;2022-08-21T07:07:00;7.32;;;2.70;;
69463;SDS011;56665;41.106;16.688;2022-08-21T07:10:04;6.50;;;2.80;;
69463;SDS011;56665;41.106;16.688;2022-08-21T07:13:08;6.60;;;3.13;;
69463;SDS011;56665;41.106;16.688;2022-08-21T07:16:12;7.90;;;2.80;;
69463;SDS011;56665;41.106;16.688;2022-08-21T07:19:16;9.57;;;2.78;;
69463;SDS011;56665;41.106;16.688;2022-08-21T07:22:20;7.05;;;2.95;;
69463;SDS011;56665;41.106;16.688;2022-08-21T07:25:24;5.85;;;2.63;;
69463;SDS011;56665;41.106;16.688;2022-08-21T07:28:28;6.65;;;2.30;;
69463;SDS011;56665;41.106;16.688;2022-08-21T07:31:32;6.30;;;2.40;;
69463;SDS011;56665;41.106;16.688;2022-08-21T07:34:36;5.47;;;2.55;;
69463;SDS011;56665;41.106;16.688;2022-08-21T07:37:41;6.25;;;2.40;;
69463;SDS011;56665;41.106;16.688;2022-08-21T07:40:45;3.92;;;2.47;;
69463;SDS011;56665;41.106;16.688;2022-08-21T07:43:49;6.90;;;2.55;;
69463;SDS011;56665;41.106;16.688;2022-08-21T07:46:53;6.93;;;2.57;;
69463;SDS011;56665;41.106;16.688;2022-08-21T07:49:57;6.60;;;2.63;;
69463;SDS011;56665;41.106;16.688;2022-08-21T07:53:01;9.48;;;2.17;;
69463;SDS011;56665;41.106;16.688;2022-08-21T07:56:06;5.70;;;2.20;;
69463;SDS011;56665;41.106;16.688;2022-08-21T07:59:11;4.65;;;2.08;;
69463;SDS011;56665;41.106;16.688;2022-08-21T08:02:26;7.77;;;2.27;;
69463;SDS011;56665;41.106;16.688;2022-08-21T08:05:31;13.38;;;2.78;;
69463;SDS011;56665;41.106;16.688;2022-08-21T08:08:36;5.85;;;2.20;;
69463;SDS011;56665;41.106;16.688;2022-08-21T08:11:40;6.00;;;2.13;;
69463;SDS011;56665;41.106;16.688;2022-08-21T08:14:46;5.50;;;2.20;;
69463;SDS011;56665;41.106;16.688;2022-08-21T08:17:51;4.20;;;1.90;;
69463;SDS011;56665;41.106;16.688;2022-08-21T08:20:55;7.03;;;2.20;;
69463;SDS011;56665;41.106;16.688;2022-08-21T08:24:00;6.60;;;2.58;;
69463;SDS011;56665;41.106;16.688;2022-08-21T08:27:04;9.70;;;2.53;;
69463;SDS011;56665;41.106;16.688;2022-08-21T08:30:09;5.15;;;2.50;;
69463;SDS011;56665;41.106;16.688;2022-08-21T08:33:14;6.07;;;2.30;;
69463;SDS011;56665;41.106;16.688;2022-08-21T08:36:18;4.57;;;2.15;;
69463;SDS011;56665;41.106;16.688;2022-08-21T08:39:22;5.57;;;2.45;;
69463;SDS011;56665;41.106;16.688;2022-08-21T08:42:30;5.35;;;2.30;;
69463;SDS011;56665;41.106;16.688;2022-08-21T08:45:37;4.45;;;2.40;;
69463;SDS011;56665;41.106;16.688;2022-08-21T08:55:07;6.47;;;2.70;;
69463;SDS011;56665;41.106;16.688;2022-08-21T09:01:27;4.30;;;2.05;;
69463;SDS011;56665;41.106;16.688;2022-08-21T09:04:31;6.47;;;1.90;;
69463;SDS011;56665;41.106;16.688;2022-08-21T09:07:57;4.93;;;2.03;;
69463;SDS011;56665;41.106;16.688;2022-08-21T09:11:41;4.88;;;1.95;;
69463;SDS011;56665;41.106;16.688;2022-08-21T09:14:54;5.35;;;1.95;;
69463;SDS011;56665;41.106;16.688;2022-08-21T09:22:23;5.93;;;2.10;;
69463;SDS011;56665;41.106;16.688;2022-08-21T09:25:32;3.20;;;1.67;;
69463;SDS011;56665;41.106;16.688;2022-08-21T09:28:40;7.18;;;1.90;;
69463;SDS011;56665;41.106;16.688;2022-08-21T09:31:47;4.60;;;2.03;;
69463;SDS011;56665;41.106;16.688;2022-08-21T09:35:33;5.55;;;1.98;;
69463;SDS011;56665;41.106;16.688;2022-08-21T09:38:24;4.93;;;2.00;;
69463;SDS011;56665;41.106;16.688;2022-08-21T09:41:35;5.03;;;1.70;;
69463;SDS011;56665;41.106;16.688;2022-08-21T09:44:40;5.00;;;1.60;;
69463;SDS011;56665;41.106;16.688;2022-08-21T09:47:46;5.25;;;1.38;;
69463;SDS011;56665;41.106;16.688;2022-08-21T09:50:50;2.80;;;1.50;;
69463;SDS011;56665;41.106;16.688;2022-08-21T10:00:31;3.78;;;1.60;;
69463;SDS011;56665;41.106;16.688;2022-08-21T10:03:36;5.63;;;1.80;;
69463;SDS011;56665;41.106;16.688;2022-08-21T10:06:40;3.80;;;1.60;;
69463;SDS011;56665;41.106;16.688;2022-08-21T10:09:44;6.00;;;1.60;;
69463;SDS011;56665;41.106;16.688;2022-08-21T10:26:57;3.33;;;1.40;;
69463;SDS011;56665;41.106;16.688;2022-08-21T10:44:49;3.67;;;1.80;;
69463;SDS011;56665;41.106;16.688;2022-08-21T10:48:07;6.53;;;1.90;;
69463;SDS011;56665;41.106;16.688;2022-08-21T10:51:38;5.13;;;1.98;;
69463;SDS011;56665;41.106;16.688;2022-08-21T10:54:50;4.40;;;1.90;;
69463;SDS011;56665;41.106;16.688;2022-08-21T10:57:59;5.03;;;1.60;;
69463;SDS011;56665;41.106;16.688;2022-08-21T11:01:09;4.17;;;1.60;;
69463;SDS011;56665;41.106;16.688;2022-08-21T11:04:32;4.55;;;1.90;;
69463;SDS011;56665;41.106;16.688;2022-08-21T11:11:47;6.15;;;1.80;;
69463;SDS011;56665;41.106;16.688;2022-08-21T11:14:59;4.97;;;1.90;;
69463;SDS011;56665;41.106;16.688;2022-08-21T11:18:21;9.07;;;2.20;;
69463;SDS011;56665;41.106;16.688;2022-08-21T11:21:34;5.68;;;2.22;;
69463;SDS011;56665;41.106;16.688;2022-08-21T11:25:06;8.85;;;2.38;;
69463;SDS011;56665;41.106;16.688;2022-08-21T11:28:21;7.00;;;2.17;;
69463;SDS011;56665;41.106;16.688;2022-08-21T11:35:41;5.43;;;2.43;;
69463;SDS011;56665;41.106;16.688;2022-08-21T11:39:19;4.07;;;1.83;;
69463;SDS011;56665;41.106;16.688;2022-08-21T11:42:28;5.63;;;2.40;;
69463;SDS011;56665;41.106;16.688;2022-08-21T11:45:55;5.57;;;2.53;;
69463;SDS011;56665;41.106;16.688;2022-08-21T11:56:10;4.88;;;2.00;;
69463;SDS011;56665;41.106;16.688;2022-08-21T11:59:40;5.43;;;1.70;;
69463;SDS011;56665;41.106;16.688;2022-08-21T12:02:55;4.68;;;1.88;;
69463;SDS011;56665;41.106;16.688;2022-08-21T12:06:27;6.93;;;2.30;;
69463;SDS011;56665;41.106;16.688;2022-08-21T12:09:35;6.47;;;2.07;;
69463;SDS011;56665;41.106;16.688;2022-08-21T12:12:41;5.80;;;1.80;;
69463;SDS011;56665;41.106;16.688;2022-08-21T12:15:46;5.82;;;1.90;;
69463;SDS011;56665;41.106;16.688;2022-08-21T12:18:50;4.15;;;1.80;;
69463;SDS011;56665;41.106;16.688;2022-08-21T12:25:10;5.60;;;1.60;;
69463;SDS011;56665;41.106;16.688;2022-08-21T12:28:22;6.68;;;1.92;;
69463;SDS011;56665;41.106;16.688;2022-08-21T12:31:27;4.18;;;1.83;;
69463;SDS011;56665;41.106;16.688;2022-08-21T12:34:38;5.40;;;1.70;;
69463;SDS011;56665;41.106;16.688;2022-08-21T12:37:55;8.65;;;1.70;;
69463;SDS011;56665;41.106;16.688;2022-08-21T12:41:05;4.27;;;1.57;;
69463;SDS011;56665;41.106;16.688;2022-08-21T12:44:24;3.58;;;1.52;;
69463;SDS011;56665;41.106;16.688;2022-08-21T12:47:59;3.70;;;1.30;;
69463;SDS011;56665;41.106;16.688;2022-08-21T12:51:13;4.28;;;1.33;;
69463;SDS011;56665;41.106;16.688;2022-08-21T12:54:27;4.28;;;1.33;;
69463;SDS011;56665;41.106;16.688;2022-08-21T12:57:35;4.10;;;1.50;;
69463;SDS011;56665;41.106;16.688;2022-08-21T13:00:44;4.00;;;1.67;;
69463;SDS011;56665;41.106;16.688;2022-08-21T13:03:54;5.10;;;1.70;;
69463;SDS011;56665;41.106;16.688;2022-08-21T13:07:01;7.38;;;1.70;;
69463;SDS011;56665;41.106;16.688;2022-08-21T13:10:19;4.03;;;1.50;;
69463;SDS011;56665;41.106;16.688;2022-08-21T13:13:27;7.20;;;1.63;;
69463;SDS011;56665;41.106;16.688;2022-08-21T13:16:32;7.43;;;1.50;;
69463;SDS011;56665;41.106;16.688;2022-08-21T13:19:36;4.25;;;1.95;;
69463;SDS011;56665;41.106;16.688;2022-08-21T13:22:41;4.57;;;2.00;;
69463;SDS011;56665;41.106;16.688;2022-08-21T13:25:47;4.05;;;1.85;;
69463;SDS011;56665;41.106;16.688;2022-08-21T13:28:51;5.63;;;1.50;;
69463;SDS011;56665;41.106;16.688;2022-08-21T13:31:55;6.40;;;1.52;;
69463;SDS011;56665;41.106;16.688;2022-08-21T13:35:08;5.18;;;1.45;;
69463;SDS011;56665;41.106;16.688;2022-08-21T13:38:25;6.65;;;2.05;;
69463;SDS011;56665;41.106;16.688;2022-08-21T13:41:33;4.35;;;1.60;;
69463;SDS011;56665;41.106;16.688;2022-08-21T13:44:40;4.87;;;1.30;;
69463;SDS011;56665;41.106;16.688;2022-08-21T13:47:47;4.43;;;1.30;;
69463;SDS011;56665;41.106;16.688;2022-08-21T13:50:51;5.43;;;1.63;;
69463;SDS011;56665;41.106;16.688;2022-08-21T13:53:55;4.22;;;1.30;;
69463;SDS011;56665;41.106;16.688;2022-08-21T13:56:59;4.35;;;1.38;;
69463;SDS011;56665;41.106;16.688;2022-08-21T14:00:42;3.87;;;1.47;;
69463;SDS011;56665;41.106;16.688;2022-08-21T14:03:41;5.38;;;1.40;;
69463;SDS011;56665;41.106;16.688;2022-08-21T14:06:47;5.05;;;1.50;;
69463;SDS011;56665;41.106;16.688;2022-08-21T14:09:51;4.55;;;1.40;;
69463;SDS011;56665;41.106;16.688;2022-08-21T14:12:56;4.85;;;1.40;;
69463;SDS011;56665;41.106;16.688;2022-08-21T14:16:19;5.17;;;1.10;;
69463;SDS011;56665;41.106;16.688;2022-08-21T14:19:26;4.60;;;1.10;;
69463;SDS011;56665;41.106;16.688;2022-08-21T14:25:43;4.80;;;1.42;;
69463;SDS011;56665;41.106;16.688;2022-08-21T14:28:50;3.10;;;1.10;;
69463;SDS011;56665;41.106;16.688;2022-08-21T14:31:57;4.53;;;1.10;;
69463;SDS011;56665;41.106;16.688;2022-08-21T14:35:02;3.47;;;1.10;;
69463;SDS011;56665;41.106;16.688;2022-08-21T14:38:13;4.57;;;1.25;;
69463;SDS011;56665;41.106;16.688;2022-08-21T14:41:21;4.15;;;1.15;;
69463;SDS011;56665;41.106;16.688;2022-08-21T14:44:27;2.80;;;1.10;;
69463;SDS011;56665;41.106;16.688;2022-08-21T14:47:31;5.20;;;1.37;;
69463;SDS011;56665;41.106;16.688;2022-08-21T14:50:34;3.90;;;1.25;;
69463;SDS011;56665;41.106;16.688;2022-08-21T14:53:38;4.93;;;1.50;;
69463;SDS011;56665;41.106;16.688;2022-08-21T14:56:42;3.33;;;1.40;;
69463;SDS011;56665;41.106;16.688;2022-08-21T14:59:45;4.93;;;1.20;;
69463;SDS011;56665;41.106;16.688;2022-08-21T15:02:51;6.70;;;1.67;;
69463;SDS011;56665;41.106;16.688;2022-08-21T15:05:55;7.18;;;1.33;;
69463;SDS011;56665;41.106;16.688;2022-08-21T15:08:59;4.10;;;1.35;;
69463;SDS011;56665;41.106;16.688;2022-08-21T15:12:05;4.63;;;1.27;;
69463;SDS011;56665;41.106;16.688;2022-08-21T15:15:09;3.20;;;1.23;;
69463;SDS011;56665;41.106;16.688;2022-08-21T15:18:13;4.20;;;1.20;;
69463;SDS011;56665;41.106;16.688;2022-08-21T15:21:19;2.55;;;1.17;;
69463;SDS011;56665;41.106;16.688;2022-08-21T15:24:22;3.78;;;1.20;;
69463;SDS011;56665;41.106;16.688;2022-08-21T15:27:26;4.63;;;1.45;;
69463;SDS011;56665;41.106;16.688;2022-08-21T15:30:30;4.65;;;1.38;;
69463;SDS011;56665;41.106;16.688;2022-08-21T15:33:34;4.90;;;1.47;;
69463;SDS011;56665;41.106;16.688;2022-08-21T15:36:38;3.40;;;1.13;;
69463;SDS011;56665;41.106;16.688;2022-08-21T15:39:42;4.38;;;1.08;;
69463;SDS011;56665;41.106;16.688;2022-08-21T15:42:45;4.55;;;1.23;;
69463;SDS011;56665;41.106;16.688;2022-08-21T15:45:49;4.28;;;1.60;;
69463;SDS011;56665;41.106;16.688;2022-08-21T15:48:53;5.07;;;1.20;;
69463;SDS011;56665;41.106;16.688;2022-08-21T15:51:58;4.50;;;1.30;;
69463;SDS011;56665;41.106;16.688;2022-08-21T15:55:02;4.00;;;1.00;;
69463;SDS011;56665;41.106;16.688;2022-08-21T15:58:07;4.25;;;1.10;;
69463;SDS011;56665;41.106;16.688;2022-08-21T16:01:15;3.40;;;1.33;;
69463;SDS011;56665;41.106;16.688;2022-08-21T16:04:21;4.57;;;1.00;;
69463;SDS011;56665;41.106;16.688;2022-08-21T16:07:26;2.80;;;0.95;;
69463;SDS011;56665;41.106;16.688;2022-08-21T16:10:30;4.38;;;1.20;;
69463;SDS011;56665;41.106;16.688;2022-08-21T16:13:36;3.63;;;1.33;;
69463;SDS011;56665;41.106;16.688;2022-08-21T16:16:44;3.55;;;1.08;;
69463;SDS011;56665;41.106;16.688;2022-08-21T16:19:48;3.40;;;1.30;;
69463;SDS011;56665;41.106;16.688;2022-08-21T16:22:52;3.88;;;1.00;;
69463;SDS011;56665;41.106;16.688;2022-08-21T16:25:58;4.22;;;1.17;;
69463;SDS011;56665;41.106;16.688;2022-08-21T16:29:02;5.50;;;1.40;;
69463;SDS011;56665;41.106;16.688;2022-08-21T16:32:07;3.53;;;1.27;;
69463;SDS011;56665;41.106;16.688;2022-08-21T16:35:12;4.97;;;1.30;;
69463;SDS011;56665;41.106;16.688;2022-08-21T16:38:17;4.55;;;1.20;;
69463;SDS011;56665;41.106;16.688;2022-08-21T16:41:21;6.43;;;1.63;;
69463;SDS011;56665;41.106;16.688;2022-08-21T16:44:26;4.53;;;1.48;;
69463;SDS011;56665;41.106;16.688;2022-08-21T16:47:30;3.55;;;1.00;;
69463;SDS011;56665;41.106;16.688;2022-08-21T16:50:34;5.70;;;1.00;;
69463;SDS011;56665;41.106;16.688;2022-08-21T16:53:39;3.03;;;0.95;;
69463;SDS011;56665;41.106;16.688;2022-08-21T16:56:43;2.67;;;1.08;;
69463;SDS011;56665;41.106;16.688;2022-08-21T16:59:48;2.58;;;1.10;;
69463;SDS011;56665;41.106;16.688;2022-08-21T17:02:53;3.78;;;1.17;;
69463;SDS011;56665;41.106;16.688;2022-08-21T17:05:57;3.80;;;1.00;;
69463;SDS011;56665;41.106;16.688;2022-08-21T17:09:01;2.80;;;1.00;;
69463;SDS011;56665;41.106;16.688;2022-08-21T17:12:06;4.50;;;1.95;;
69463;SDS011;56665;41.106;16.688;2022-08-21T17:15:17;4.15;;;2.00;;
69463;SDS011;56665;41.106;16.688;2022-08-21T17:18:24;4.45;;;2.50;;
69463;SDS011;56665;41.106;16.688;2022-08-21T17:21:28;5.43;;;1.60;;
69463;SDS011;56665;41.106;16.688;2022-08-21T17:24:32;3.22;;;1.90;;
69463;SDS011;56665;41.106;16.688;2022-08-21T17:27:36;4.10;;;1.52;;
69463;SDS011;56665;41.106;16.688;2022-08-21T17:30:42;5.28;;;1.70;;
69463;SDS011;56665;41.106;16.688;2022-08-21T17:33:49;5.22;;;1.40;;
69463;SDS011;56665;41.106;16.688;2022-08-21T17:36:55;4.53;;;1.60;;
69463;SDS011;56665;41.106;16.688;2022-08-21T17:39:58;3.78;;;1.60;;
69463;SDS011;56665;41.106;16.688;2022-08-21T17:43:02;3.13;;;1.40;;
69463;SDS011;56665;41.106;16.688;2022-08-21T17:46:09;4.85;;;1.55;;
69463;SDS011;56665;41.106;16.688;2022-08-21T17:49:17;3.83;;;2.40;;
69463;SDS011;56665;41.106;16.688;2022-08-21T17:52:21;3.77;;;1.40;;
69463;SDS011;56665;41.106;16.688;2022-08-21T17:55:26;3.85;;;1.20;;
69463;SDS011;56665;41.106;16.688;2022-08-21T17:58:31;2.47;;;1.27;;
69463;SDS011;56665;41.106;16.688;2022-08-21T18:01:40;2.78;;;1.38;;
69463;SDS011;56665;41.106;16.688;2022-08-21T18:04:45;3.20;;;1.20;;
69463;SDS011;56665;41.106;16.688;2022-08-21T18:07:50;3.00;;;1.10;;
69463;SDS011;56665;41.106;16.688;2022-08-21T18:10:54;3.28;;;0.98;;
69463;SDS011;56665;41.106;16.688;2022-08-21T18:13:58;3.15;;;1.10;;
69463;SDS011;56665;41.106;16.688;2022-08-21T18:17:06;2.53;;;1.10;;
69463;SDS011;56665;41.106;16.688;2022-08-21T18:20:11;4.85;;;1.15;;
69463;SDS011;56665;41.106;16.688;2022-08-21T18:23:17;3.67;;;1.00;;
69463;SDS011;56665;41.106;16.688;2022-08-21T18:26:39;2.10;;;0.90;;
69463;SDS011;56665;41.106;16.688;2022-08-21T18:29:45;3.97;;;1.10;;
69463;SDS011;56665;41.106;16.688;2022-08-21T18:32:52;2.80;;;0.98;;
69463;SDS011;56665;41.106;16.688;2022-08-21T18:35:57;2.92;;;1.00;;
69463;SDS011;56665;41.106;16.688;2022-08-21T18:39:01;2.63;;;0.93;;
69463;SDS011;56665;41.106;16.688;2022-08-21T18:42:09;4.72;;;1.20;;
69463;SDS011;56665;41.106;16.688;2022-08-21T18:45:15;3.47;;;1.20;;
69463;SDS011;56665;41.106;16.688;2022-08-21T18:48:21;4.00;;;1.00;;
69463;SDS011;56665;41.106;16.688;2022-08-21T18:51:24;2.90;;;1.10;;
69463;SDS011;56665;41.106;16.688;2022-08-21T18:54:28;3.03;;;1.17;;
69463;SDS011;56665;41.106;16.688;2022-08-21T18:57:32;3.78;;;1.40;;
69463;SDS011;56665;41.106;16.688;2022-08-21T19:00:40;4.72;;;1.60;;
69463;SDS011;56665;41.106;16.688;2022-08-21T19:03:49;2.42;;;1.05;;
69463;SDS011;56665;41.106;16.688;2022-08-21T19:06:53;3.40;;;1.08;;
69463;SDS011;56665;41.106;16.688;2022-08-21T19:09:57;5.53;;;1.13;;
69463;SDS011;56665;41.106;16.688;2022-08-21T19:13:00;4.32;;;1.08;;
69463;SDS011;56665;41.106;16.688;2022-08-21T19:16:06;4.25;;;1.10;;
69463;SDS011;56665;41.106;16.688;2022-08-21T19:19:11;5.57;;;1.20;;
69463;SDS011;56665;41.106;16.688;2022-08-21T19:22:15;4.65;;;1.10;;
69463;SDS011;56665;41.106;16.688;2022-08-21T19:25:19;5.23;;;1.40;;
69463;SDS011;56665;41.106;16.688;2022-08-21T19:28:25;4.60;;;1.17;;
69463;SDS011;56665;41.106;16.688;2022-08-21T19:31:33;4.95;;;1.30;;
69463;SDS011;56665;41.106;16.688;2022-08-21T19:34:41;2.95;;;1.10;;
69463;SDS011;56665;41.106;16.688;2022-08-21T19:37:45;3.50;;;1.20;;